Terminal Aerodrome Forecast
Issued by NWS Chicago, IL

Home | Current Version | Previous Version | Graphics & Text | Print | Product List | Glossary On
Versions: 1 2 3 4 5 6 7 8 9 10 11 12 13 14 15 16 17 18 19 20 21 22 23 24 25 26 27 28 29 30
000
FTUS43 KLOT 220500
TAFRFD
TAF
KRFD 220527Z 2206/2306 15011KT P6SM OVC035
      TEMPO 2207/2210 -RASN SCT025 BKN030
     FM221600 12010KT 5SM -RASN BR OVC020
     FM221800 12012KT 5SM -RA BR OVC015
     FM222000 12013KT 3SM RA BR OVC007
     FM230300 13013KT 2SM -DZRA BR OVC004=

USA.gov is the U.S. government's official web portal to all federal, state and local government web resources and services.